Time;durP1;ratioP1;P1;durP2;ratioP2;P2;SDS_P1;SDS_P2;PMS_P1;PMS_P2;Temp;Humidity;BMP_temperature;BMP_pressure;BME280_temperature;BME280_humidity;BME280_pressure;Samples;Min_cycle;Max_cycle;Signal;HPM_P1;HPM_P2
2021/09/25 00:02:20;;;;;;;4.30;1.30;;;20.90;96.70;;;;;;5116986;27;20672;-74
2021/09/25 00:04:49;;;;;;;3.22;1.50;;;20.90;96.70;;;;;;5109006;27;20039;-74
2021/09/25 00:07:17;;;;;;;4.32;1.70;;;20.80;96.70;;;;;;5115760;27;20122;-74
2021/09/25 00:09:45;;;;;;;1.92;1.50;;;20.90;96.70;;;;;;5105944;27;20062;-73
2021/09/25 00:12:16;;;;;;;4.88;2.03;;;20.90;96.70;;;;;;5116062;27;20552;-74
2021/09/25 00:14:45;;;;;;;3.65;1.30;;;20.70;96.70;;;;;;5121328;27;20047;-74
2021/09/25 00:17:14;;;;;;;2.42;1.48;;;20.70;96.70;;;;;;5130473;27;20035;-74
2021/09/25 00:19:43;;;;;;;3.30;1.63;;;20.70;96.70;;;;;;5114525;27;20043;-73
2021/09/25 00:22:11;;;;;;;3.00;1.63;;;20.60;96.70;;;;;;5125211;27;20480;-73
2021/09/25 00:24:39;;;;;;;3.90;1.67;;;20.50;96.70;;;;;;5125877;27;20497;-73
2021/09/25 00:27:07;;;;;;;2.80;1.38;;;20.40;96.70;;;;;;5117701;27;20039;-74
2021/09/25 00:29:37;;;;;;;3.83;1.40;;;20.40;96.70;;;;;;5118174;27;20047;-74
2021/09/25 00:32:06;;;;;;;3.13;1.60;;;20.40;96.70;;;;;;5124143;27;20507;-74
2021/09/25 00:34:34;;;;;;;4.72;2.05;;;20.30;96.70;;;;;;5122604;27;20043;-73
2021/09/25 00:37:03;;;;;;;5.72;1.85;;;20.40;96.70;;;;;;5122170;27;20741;-74
2021/09/25 00:39:32;;;;;;;3.50;1.45;;;20.40;96.70;;;;;;5123449;27;20100;-73
2021/09/25 00:42:00;;;;;;;3.22;1.80;;;20.40;96.70;;;;;;5125621;27;20189;-74
2021/09/25 00:44:28;;;;;;;4.45;1.52;;;20.40;96.70;;;;;;5100965;27;20381;-74
2021/09/25 00:46:58;;;;;;;2.78;1.58;;;20.40;96.70;;;;;;5109022;27;20054;-74
2021/09/25 00:49:26;;;;;;;2.85;2.10;;;20.40;96.70;;;;;;5123620;27;20066;-74
2021/09/25 00:51:55;;;;;;;7.10;2.42;;;20.40;96.70;;;;;;5114962;27;20071;-74
2021/09/25 00:54:23;;;;;;;5.13;2.30;;;20.30;96.70;;;;;;5104062;27;20047;-74
2021/09/25 00:56:52;;;;;;;3.72;2.53;;;20.30;96.70;;;;;;5115781;27;20039;-74
2021/09/25 00:59:20;;;;;;;3.03;2.10;;;20.30;96.70;;;;;;5122853;27;20088;-74
2021/09/25 01:01:51;;;;;;;4.65;2.40;;;20.20;96.70;;;;;;5115995;27;20132;-74
2021/09/25 01:04:22;;;;;;;5.93;2.35;;;20.20;96.70;;;;;;5102048;27;20048;-74
2021/09/25 01:06:51;;;;;;;3.13;2.10;;;20.10;96.70;;;;;;5121845;27;20046;-75
2021/09/25 01:09:19;;;;;;;3.55;2.10;;;20.20;96.70;;;;;;5115948;27;20070;-74
2021/09/25 01:11:49;;;;;;;4.70;2.15;;;20.00;96.70;;;;;;5100060;27;20124;-74
2021/09/25 01:14:17;;;;;;;4.93;2.45;;;19.90;96.70;;;;;;5121920;27;20043;-74
2021/09/25 01:16:45;;;;;;;4.70;2.08;;;19.90;96.70;;;;;;5110897;27;20519;-74
2021/09/25 01:19:14;;;;;;;3.67;2.00;;;19.80;96.70;;;;;;5113796;27;20071;-74
2021/09/25 01:21:44;;;;;;;5.30;2.20;;;19.80;96.70;;;;;;5114065;27;20088;-74
2021/09/25 01:24:12;;;;;;;6.25;2.53;;;19.90;96.70;;;;;;5113573;27;20443;-74
2021/09/25 01:26:40;;;;;;;3.13;2.42;;;19.90;96.70;;;;;;5113213;27;20031;-74
2021/09/25 01:29:09;;;;;;;3.95;2.33;;;19.90;96.70;;;;;;5118615;27;20044;-74
2021/09/25 01:31:37;;;;;;;4.13;2.33;;;19.90;96.70;;;;;;5120386;27;20459;-74
2021/09/25 01:34:06;;;;;;;6.97;2.55;;;19.80;96.70;;;;;;5120925;27;20519;-74
2021/09/25 01:36:34;;;;;;;5.57;2.30;;;19.80;96.70;;;;;;5123465;27;20032;-74
2021/09/25 01:39:05;;;;;;;3.35;1.90;;;19.80;96.70;;;;;;5107076;27;20050;-74
2021/09/25 01:41:33;;;;;;;3.40;1.90;;;19.80;96.70;;;;;;5120610;27;20480;-74
2021/09/25 01:44:02;;;;;;;5.38;1.70;;;19.70;96.70;;;;;;5119793;27;20045;-74
2021/09/25 01:46:30;;;;;;;6.50;1.83;;;19.80;96.70;;;;;;5113304;27;20096;-74
2021/09/25 01:48:58;;;;;;;2.67;1.70;;;19.90;96.70;;;;;;5127956;27;20293;-74
2021/09/25 01:51:27;;;;;;;3.40;1.85;;;19.90;96.70;;;;;;5126138;27;20046;-74
2021/09/25 01:53:55;;;;;;;3.90;1.75;;;19.90;96.70;;;;;;5119125;27;20039;-74
2021/09/25 01:56:25;;;;;;;4.82;1.70;;;19.90;96.70;;;;;;5115593;27;20040;-74
2021/09/25 01:58:53;;;;;;;2.28;1.50;;;19.90;96.70;;;;;;5114260;27;20119;-74
2021/09/25 02:01:21;;;;;;;3.30;1.50;;;19.90;96.70;;;;;;5119630;27;20043;-74
2021/09/25 02:03:49;;;;;;;3.50;1.63;;;19.80;96.70;;;;;;5113477;27;20576;-74
2021/09/25 02:06:18;;;;;;;4.35;1.83;;;19.80;96.70;;;;;;5108673;27;20385;-73
2021/09/25 02:08:46;;;;;;;4.35;1.73;;;19.80;96.70;;;;;;5108235;27;20043;-74
2021/09/25 02:11:15;;;;;;;3.63;1.70;;;19.60;96.70;;;;;;5123778;27;20038;-74
2021/09/25 02:13:44;;;;;;;7.03;2.13;;;19.60;96.70;;;;;;5113161;27;20504;-74
2021/09/25 02:16:13;;;;;;;3.75;1.60;;;19.70;96.70;;;;;;5116808;27;20114;-74
2021/09/25 02:18:42;;;;;;;3.03;1.70;;;19.70;96.70;;;;;;5110652;27;20047;-74
2021/09/25 02:21:10;;;;;;;3.33;1.70;;;19.70;96.70;;;;;;5118832;27;20043;-74
2021/09/25 02:23:38;;;;;;;4.10;2.10;;;19.70;96.70;;;;;;5114278;27;20056;-74
2021/09/25 02:26:06;;;;;;;5.00;1.98;;;19.80;96.70;;;;;;5115295;27;20031;-74
2021/09/25 02:28:34;;;;;;;5.32;2.33;;;19.70;96.70;;;;;;5098420;27;20568;-74
2021/09/25 02:31:04;;;;;;;3.40;1.92;;;19.60;96.70;;;;;;5115760;27;20041;-73
2021/09/25 02:33:32;;;;;;;4.53;2.42;;;19.60;96.70;;;;;;5115716;27;20373;-74
2021/09/25 02:36:00;;;;;;;3.92;2.20;;;19.50;96.70;;;;;;5116873;27;20317;-74
2021/09/25 02:38:28;;;;;;;5.32;2.70;;;19.50;96.70;;;;;;5117205;27;20488;-74
2021/09/25 02:40:56;;;;;;;3.95;2.45;;;19.50;96.70;;;;;;5113788;27;20041;-74
2021/09/25 02:43:25;;;;;;;6.45;2.60;;;19.40;96.70;;;;;;5113856;27;20522;-74
2021/09/25 02:45:53;;;;;;;4.38;2.10;;;19.40;96.70;;;;;;5124665;27;20041;-73
2021/09/25 02:48:22;;;;;;;3.33;2.30;;;19.30;96.70;;;;;;5117718;27;20039;-74
2021/09/25 02:50:50;;;;;;;4.70;2.40;;;19.20;96.70;;;;;;5117775;27;20035;-73
2021/09/25 02:53:18;;;;;;;4.68;2.80;;;19.20;96.70;;;;;;5109097;27;20048;-73
2021/09/25 02:55:46;;;;;;;3.58;2.25;;;19.20;96.70;;;;;;5119951;27;20446;-74
2021/09/25 02:58:14;;;;;;;5.90;3.30;;;19.20;96.70;;;;;;5122513;27;20065;-73
2021/09/25 03:00:42;;;;;;;6.85;2.50;;;19.20;96.70;;;;;;5119926;27;20403;-72
2021/09/25 03:03:11;;;;;;;4.30;2.60;;;19.20;96.70;;;;;;5108023;27;20272;-72
2021/09/25 03:05:40;;;;;;;7.13;2.50;;;19.20;96.70;;;;;;5117830;27;20277;-72
2021/09/25 03:08:08;;;;;;;4.50;2.25;;;19.20;96.70;;;;;;5110346;27;20484;-72
2021/09/25 03:10:36;;;;;;;4.95;2.42;;;19.20;96.70;;;;;;5111753;27;20047;-72
2021/09/25 03:13:04;;;;;;;3.83;2.15;;;19.10;96.70;;;;;;5111676;27;20032;-73
2021/09/25 03:15:33;;;;;;;3.63;2.22;;;19.00;96.70;;;;;;5107823;27;20066;-72
2021/09/25 03:18:02;;;;;;;4.20;2.17;;;19.00;96.70;;;;;;5122003;27;20158;-72
2021/09/25 03:20:30;;;;;;;4.88;2.60;;;19.10;96.70;;;;;;5114730;28;20040;-72
2021/09/25 03:22:59;;;;;;;4.63;2.53;;;19.10;96.70;;;;;;5113074;27;20346;-72
2021/09/25 03:25:27;;;;;;;4.70;1.95;;;19.10;96.70;;;;;;5108058;27;20043;-72
2021/09/25 03:27:56;;;;;;;3.70;2.30;;;19.00;96.70;;;;;;5116064;27;20051;-72
2021/09/25 03:30:24;;;;;;;4.22;2.15;;;19.00;96.70;;;;;;5122089;27;20481;-72
2021/09/25 03:32:52;;;;;;;5.70;3.08;;;19.00;96.70;;;;;;5115679;27;20577;-72
2021/09/25 03:35:20;;;;;;;3.50;2.30;;;19.10;96.70;;;;;;5112439;28;20547;-72
2021/09/25 03:37:49;;;;;;;4.70;2.70;;;19.10;96.70;;;;;;5115385;27;20046;-72
2021/09/25 03:40:18;;;;;;;4.43;2.15;;;19.00;96.70;;;;;;5121421;27;20286;-72
2021/09/25 03:42:47;;;;;;;3.95;2.15;;;18.90;96.70;;;;;;5113229;27;20514;-72
2021/09/25 03:45:15;;;;;;;3.47;1.83;;;18.90;96.70;;;;;;5114666;27;20050;-72
2021/09/25 03:47:44;;;;;;;2.58;1.75;;;19.00;96.70;;;;;;5122839;27;20035;-73
2021/09/25 03:50:14;;;;;;;4.53;2.13;;;19.00;96.70;;;;;;5127137;27;20045;-72
2021/09/25 03:52:42;;;;;;;3.90;2.28;;;19.00;96.70;;;;;;5116305;27;20039;-72
2021/09/25 03:55:10;;;;;;;2.55;2.10;;;19.00;96.70;;;;;;5111068;27;20530;-72
2021/09/25 03:57:39;;;;;;;4.10;2.50;;;19.00;96.70;;;;;;5113799;27;20382;-75
2021/09/25 04:00:09;;;;;;;5.03;2.63;;;19.00;96.70;;;;;;5110478;27;20044;-74
2021/09/25 04:02:37;;;;;;;3.25;2.28;;;18.90;96.70;;;;;;5118336;27;20212;-73
2021/09/25 04:05:06;;;;;;;5.25;2.20;;;18.90;96.70;;;;;;5126151;27;20474;-74
2021/09/25 04:07:34;;;;;;;3.35;1.80;;;18.90;96.70;;;;;;5120855;27;20558;-74
2021/09/25 04:10:06;;;;;;;5.30;2.13;;;18.90;96.70;;;;;;5114934;27;20031;-74
2021/09/25 04:12:35;;;;;;;3.50;2.28;;;18.90;96.70;;;;;;5123887;27;20576;-74
2021/09/25 04:15:05;;;;;;;4.72;2.22;;;18.90;96.70;;;;;;5099088;27;20507;-74
2021/09/25 04:17:35;;;;;;;2.92;2.33;;;18.90;96.70;;;;;;5120686;27;20466;-74
2021/09/25 04:20:04;;;;;;;5.47;2.40;;;18.80;96.70;;;;;;5113414;27;20074;-74
2021/09/25 04:22:33;;;;;;;4.47;2.40;;;18.80;96.70;;;;;;5119109;27;20052;-74
2021/09/25 04:25:01;;;;;;;4.15;2.40;;;18.80;96.70;;;;;;5109397;27;20044;-74
2021/09/25 04:27:29;;;;;;;4.53;2.08;;;18.80;96.70;;;;;;5126560;27;20163;-74
2021/09/25 04:29:58;;;;;;;4.05;2.03;;;18.80;96.70;;;;;;5119434;27;20092;-74
2021/09/25 04:32:29;;;;;;;3.00;2.50;;;18.80;96.70;;;;;;5114251;27;20127;-74
2021/09/25 04:34:57;;;;;;;2.85;1.80;;;18.80;96.70;;;;;;5110451;27;20051;-74
2021/09/25 04:37:25;;;;;;;3.97;2.17;;;18.80;96.70;;;;;;5118066;27;20046;-74
2021/09/25 04:39:53;;;;;;;4.47;2.35;;;18.80;96.70;;;;;;5117383;27;20034;-73
2021/09/25 04:42:20;;;;;;;3.00;2.10;;;18.70;96.70;;;;;;5100304;27;20508;-74
2021/09/25 04:44:48;;;;;;;3.47;2.30;;;18.80;96.70;;;;;;5118235;27;20122;-74
2021/09/25 04:47:16;;;;;;;4.88;2.53;;;18.90;96.70;;;;;;5116006;27;20581;-74
2021/09/25 04:49:46;;;;;;;3.78;2.30;;;18.80;96.70;;;;;;5118167;27;20058;-74
2021/09/25 04:52:14;;;;;;;5.13;2.50;;;18.90;96.70;;;;;;5106428;27;20412;-73
2021/09/25 04:54:43;;;;;;;6.05;2.90;;;19.00;96.70;;;;;;5117968;27;20036;-74
2021/09/25 04:57:11;;;;;;;7.22;3.17;;;18.90;96.70;;;;;;5110010;27;20046;-74
2021/09/25 04:59:39;;;;;;;4.55;2.20;;;18.80;96.70;;;;;;5119704;27;20066;-74
2021/09/25 05:02:07;;;;;;;4.25;2.33;;;18.80;96.70;;;;;;5114707;27;20047;-73
2021/09/25 05:04:36;;;;;;;4.38;2.25;;;18.70;96.70;;;;;;5116019;27;20070;-74
2021/09/25 05:07:05;;;;;;;3.90;2.42;;;18.80;96.70;;;;;;5124531;27;20053;-74
2021/09/25 05:09:33;;;;;;;4.85;2.53;;;18.70;96.70;;;;;;5118696;27;20513;-74
2021/09/25 05:12:02;;;;;;;4.60;2.55;;;18.60;96.70;;;;;;5124149;27;20045;-75
2021/09/25 05:14:30;;;;;;;2.85;2.38;;;18.70;96.70;;;;;;5132595;27;20511;-74
2021/09/25 05:16:58;;;;;;;7.57;2.55;;;18.70;96.70;;;;;;5122156;27;20039;-74
2021/09/25 05:19:26;;;;;;;5.95;2.45;;;18.80;96.70;;;;;;5117449;27;20040;-74
2021/09/25 05:21:54;;;;;;;7.80;2.65;;;18.80;96.70;;;;;;5116518;27;20071;-74
2021/09/25 05:24:24;;;;;;;7.75;2.85;;;18.70;96.70;;;;;;5110876;27;20123;-74
2021/09/25 05:26:52;;;;;;;4.35;2.65;;;18.70;96.70;;;;;;5109454;27;20583;-74
2021/09/25 05:29:22;;;;;;;3.90;2.80;;;18.70;96.70;;;;;;5117471;27;20136;-74
2021/09/25 05:31:50;;;;;;;7.22;2.63;;;18.70;96.70;;;;;;5101975;27;20152;-74
2021/09/25 05:34:18;;;;;;;4.68;2.45;;;18.70;96.70;;;;;;5118589;27;20054;-74
2021/09/25 05:36:46;;;;;;;8.65;3.05;;;18.70;96.70;;;;;;5094444;27;20074;-73
2021/09/25 05:39:14;;;;;;;4.95;3.10;;;18.80;96.70;;;;;;5111677;27;20097;-74
2021/09/25 05:41:43;;;;;;;5.43;2.88;;;18.90;96.70;;;;;;5113221;27;20047;-74
2021/09/25 05:44:11;;;;;;;6.50;3.15;;;18.90;96.70;;;;;;5106298;27;20035;-74
2021/09/25 05:46:40;;;;;;;4.65;2.90;;;18.90;96.70;;;;;;5112408;27;20058;-74
2021/09/25 05:49:08;;;;;;;5.40;3.05;;;18.90;96.70;;;;;;5116684;27;20031;-74
2021/09/25 05:51:36;;;;;;;8.25;3.47;;;19.00;96.70;;;;;;5121722;27;20039;-74
2021/09/25 05:54:04;;;;;;;6.40;3.17;;;19.00;96.70;;;;;;5119601;27;20300;-73
2021/09/25 05:56:33;;;;;;;5.82;3.30;;;19.00;96.70;;;;;;5108685;27;20148;-74
2021/09/25 05:59:03;;;;;;;7.28;3.63;;;19.10;96.70;;;;;;5109678;27;20064;-75
2021/09/25 06:01:31;;;;;;;6.60;4.10;;;19.00;96.70;;;;;;5112957;27;20087;-75
2021/09/25 06:03:59;;;;;;;7.80;3.92;;;19.10;96.70;;;;;;5112624;27;20043;-75
2021/09/25 06:06:28;;;;;;;7.10;4.40;;;19.10;96.70;;;;;;5121910;27;20496;-75
2021/09/25 06:08:56;;;;;;;7.15;4.60;;;19.20;96.70;;;;;;5119267;27;20469;-75
2021/09/25 06:11:24;;;;;;;7.85;4.65;;;19.10;96.70;;;;;;5101045;27;20035;-76
2021/09/25 06:13:52;;;;;;;7.85;5.40;;;19.10;96.70;;;;;;5118669;27;20044;-74
2021/09/25 06:16:22;;;;;;;6.65;5.45;;;19.10;96.70;;;;;;5120216;27;20055;-81
2021/09/25 06:18:50;;;;;;;7.68;5.70;;;19.10;96.70;;;;;;5112680;27;20058;-74
2021/09/25 06:21:18;;;;;;;8.55;5.75;;;19.20;96.70;;;;;;5114169;27;20044;-74
2021/09/25 06:23:46;;;;;;;9.25;6.75;;;19.30;96.70;;;;;;5112473;27;20039;-74
2021/09/25 06:26:15;;;;;;;7.32;5.10;;;19.40;96.70;;;;;;5110453;27;20138;-75
2021/09/25 06:28:46;;;;;;;10.27;6.15;;;19.50;96.70;;;;;;5125738;27;20054;-75
2021/09/25 06:31:15;;;;;;;10.65;6.30;;;19.50;96.70;;;;;;5110662;27;20081;-75
2021/09/25 06:33:45;;;;;;;9.40;6.30;;;19.60;96.70;;;;;;5110026;27;20391;-75
2021/09/25 06:36:13;;;;;;;10.93;6.72;;;19.60;96.70;;;;;;5118865;27;20039;-74
2021/09/25 06:38:41;;;;;;;11.30;7.53;;;19.60;96.70;;;;;;5108317;27;20113;-74
2021/09/25 06:41:09;;;;;;;10.48;6.55;;;19.60;96.70;;;;;;5121892;27;20531;-73
2021/09/25 06:43:37;;;;;;;8.82;6.63;;;19.60;96.70;;;;;;5117760;27;20051;-73
2021/09/25 06:46:06;;;;;;;11.40;6.32;;;19.70;96.70;;;;;;5099353;28;20035;-73
2021/09/25 06:48:34;;;;;;;12.35;7.25;;;19.70;96.70;;;;;;5111853;27;20035;-73
2021/09/25 06:51:03;;;;;;;14.23;7.35;;;19.70;96.70;;;;;;5114056;27;20043;-73
2021/09/25 06:53:31;;;;;;;17.27;11.50;;;19.80;96.70;;;;;;5111755;27;20047;-75
2021/09/25 06:55:59;;;;;;;13.32;8.82;;;19.80;96.70;;;;;;5111922;27;20044;-75
2021/09/25 06:58:27;;;;;;;17.80;9.27;;;19.90;96.70;;;;;;5108011;27;20035;-75
2021/09/25 07:00:55;;;;;;;15.65;8.07;;;20.00;96.70;;;;;;5116889;27;20049;-75
2021/09/25 07:03:24;;;;;;;11.95;8.45;;;19.90;96.70;;;;;;5112571;27;20487;-74
2021/09/25 07:05:52;;;;;;;12.02;8.77;;;20.00;96.70;;;;;;5115973;28;20122;-74
2021/09/25 07:08:22;;;;;;;13.52;10.18;;;20.00;96.70;;;;;;5127561;27;20488;-74
2021/09/25 07:10:50;;;;;;;14.25;9.30;;;20.10;96.70;;;;;;5099310;28;20074;-74
2021/09/25 07:13:19;;;;;;;14.20;8.45;;;20.10;96.70;;;;;;5117332;27;20035;-74
2021/09/25 07:15:47;;;;;;;12.57;9.40;;;20.10;96.70;;;;;;5118826;28;20042;-74
2021/09/25 07:18:16;;;;;;;11.10;8.48;;;20.20;96.70;;;;;;5118618;27;20068;-74
2021/09/25 07:20:45;;;;;;;12.27;7.50;;;20.30;96.70;;;;;;5116509;27;20088;-74
2021/09/25 07:23:13;;;;;;;10.23;6.10;;;20.40;96.70;;;;;;5118455;27;20035;-74
2021/09/25 07:25:43;;;;;;;12.15;6.32;;;20.50;96.70;;;;;;5121323;27;20071;-74
2021/09/25 07:28:11;;;;;;;10.73;5.18;;;20.50;96.70;;;;;;5121309;27;20420;-75
2021/09/25 07:30:41;;;;;;;6.20;5.10;;;20.50;96.70;;;;;;5120164;27;20044;-76
2021/09/25 07:33:09;;;;;;;8.68;5.47;;;20.60;96.70;;;;;;5119620;27;20185;-76
2021/09/25 07:35:37;;;;;;;7.90;4.93;;;20.70;96.70;;;;;;5129752;27;20122;-75
2021/09/25 07:38:06;;;;;;;7.90;5.30;;;20.70;96.70;;;;;;5123872;27;20067;-76
2021/09/25 07:40:35;;;;;;;11.02;5.47;;;20.80;96.70;;;;;;5112420;27;20115;-76
2021/09/25 07:43:05;;;;;;;8.32;5.10;;;20.80;96.70;;;;;;5119405;27;20047;-77
2021/09/25 07:45:34;;;;;;;12.05;5.15;;;20.90;96.70;;;;;;5113995;27;20531;-76
2021/09/25 07:48:03;;;;;;;9.55;5.88;;;21.00;96.70;;;;;;5122642;27;20134;-77
2021/09/25 07:50:31;;;;;;;8.85;4.80;;;21.10;96.70;;;;;;5114427;27;20039;-75
2021/09/25 07:52:59;;;;;;;8.85;4.72;;;21.10;96.70;;;;;;5118728;27;20111;-75
2021/09/25 07:55:32;;;;;;;6.88;4.97;;;21.10;96.70;;;;;;5116811;27;20043;-76
2021/09/25 07:58:01;;;;;;;6.90;4.30;;;21.10;96.70;;;;;;5120147;27;20047;-76
2021/09/25 08:00:31;;;;;;;9.57;4.70;;;21.20;96.70;;;;;;5115809;27;20141;-76
2021/09/25 08:02:59;;;;;;;9.63;4.75;;;21.30;96.70;;;;;;5127744;27;20105;-75
2021/09/25 08:05:27;;;;;;;11.02;8.60;;;21.30;96.70;;;;;;5116161;27;20088;-73
2021/09/25 08:07:55;;;;;;;10.45;5.13;;;21.40;96.70;;;;;;5117154;27;20405;-72
2021/09/25 08:10:23;;;;;;;9.05;4.13;;;21.50;96.70;;;;;;5112777;27;20445;-72
2021/09/25 08:12:51;;;;;;;7.30;4.05;;;21.60;96.70;;;;;;5126326;27;20039;-72
2021/09/25 08:15:20;;;;;;;7.68;4.10;;;21.60;96.70;;;;;;5124559;27;20049;-74
2021/09/25 08:17:49;;;;;;;7.05;4.18;;;21.70;96.70;;;;;;5121501;27;20527;-72
2021/09/25 08:20:18;;;;;;;6.80;4.03;;;21.80;96.70;;;;;;5115610;27;20644;-72
2021/09/25 08:22:47;;;;;;;6.53;3.97;;;21.90;96.70;;;;;;5107643;27;20038;-72
2021/09/25 08:25:16;;;;;;;7.03;3.72;;;21.90;96.70;;;;;;5118600;27;20046;-72
2021/09/25 08:27:44;;;;;;;7.00;3.50;;;22.00;96.70;;;;;;5110721;27;20132;-73
2021/09/25 08:30:13;;;;;;;4.65;3.15;;;22.20;96.70;;;;;;5110819;27;20042;-73
2021/09/25 08:32:41;;;;;;;7.75;3.35;;;22.30;96.70;;;;;;5116448;27;20047;-74
2021/09/25 08:35:11;;;;;;;5.75;3.28;;;22.30;96.70;;;;;;5122148;27;20051;-73
2021/09/25 08:37:40;;;;;;;7.00;3.00;;;22.40;96.70;;;;;;5140065;27;20054;-71
2021/09/25 08:40:13;;;;;;;7.63;3.10;;;22.50;96.70;;;;;;5120336;27;20043;-72
2021/09/25 08:42:41;;;;;;;7.65;3.40;;;22.60;96.70;;;;;;5127246;27;20103;-72
2021/09/25 08:45:09;;;;;;;4.60;3.10;;;22.70;96.70;;;;;;5121558;27;20043;-72
2021/09/25 08:47:38;;;;;;;7.13;3.10;;;22.90;96.70;;;;;;5113835;27;20055;-72
2021/09/25 08:50:08;;;;;;;7.28;3.25;;;23.00;96.70;;;;;;5121165;27;20046;-73
2021/09/25 08:52:38;;;;;;;5.03;3.10;;;23.10;96.70;;;;;;5122901;27;20045;-72
2021/09/25 08:55:07;;;;;;;18.67;15.20;;;23.20;96.70;;;;;;5127132;27;20488;-73
2021/09/25 08:57:36;;;;;;;8.00;4.95;;;23.40;96.70;;;;;;5119071;27;20035;-72
2021/09/25 09:00:40;;;;;;;6.03;3.45;;;23.40;96.70;;;;;;5116866;27;20066;-73
2021/09/25 09:03:30;;;;;;;6.60;3.33;;;23.40;96.70;;;;;;5109756;27;20046;-73
2021/09/25 09:06:10;;;;;;;7.18;3.17;;;23.70;96.70;;;;;;5119179;27;20592;-71
2021/09/25 09:08:42;;;;;;;5.32;2.90;;;23.90;96.70;;;;;;5112092;27;20699;-73
2021/09/25 09:11:11;;;;;;;4.43;2.70;;;24.00;96.70;;;;;;5119788;27;20046;-72
2021/09/25 09:13:41;;;;;;;5.43;2.97;;;24.10;96.70;;;;;;5112432;27;20058;-71
2021/09/25 09:16:12;;;;;;;4.25;2.85;;;24.20;96.70;;;;;;5116775;27;20047;-72
2021/09/25 09:18:43;;;;;;;5.43;3.08;;;24.40;96.70;;;;;;5113174;27;20508;-71
2021/09/25 09:21:14;;;;;;;4.88;2.80;;;24.60;96.70;;;;;;5124802;27;20058;-72
2021/09/25 09:23:46;;;;;;;4.63;2.78;;;24.70;96.70;;;;;;5090373;28;20439;-72
2021/09/25 09:26:17;;;;;;;2.92;2.63;;;24.60;96.70;;;;;;5114779;27;20549;-72
2021/09/25 09:28:47;;;;;;;7.88;3.17;;;24.60;96.70;;;;;;5122629;27;20047;-72
2021/09/25 09:31:16;;;;;;;6.75;2.92;;;24.60;96.70;;;;;;5121757;27;20496;-71
2021/09/25 09:33:46;;;;;;;6.22;2.95;;;24.60;96.70;;;;;;5118498;27;20047;-72
2021/09/25 09:36:28;;;;;;;6.10;2.83;;;24.60;96.70;;;;;;5116892;27;20126;-71
2021/09/25 09:39:03;;;;;;;4.95;3.33;;;24.70;96.70;;;;;;5110849;27;20043;-71
2021/09/25 09:41:34;;;;;;;4.97;2.92;;;24.80;96.70;;;;;;5116077;27;20055;-73
2021/09/25 09:44:05;;;;;;;12.30;8.43;;;24.70;96.70;;;;;;5115981;27;20044;-73
2021/09/25 09:46:37;;;;;;;9.20;7.65;;;24.60;96.70;;;;;;5110985;27;20512;-70
2021/09/25 09:49:07;;;;;;;7.82;3.80;;;24.70;96.70;;;;;;5094052;27;20562;-71
2021/09/25 09:51:46;;;;;;;6.55;3.03;;;24.80;96.70;;;;;;5116408;27;20038;-71
2021/09/25 09:54:22;;;;;;;4.13;2.63;;;24.90;96.70;;;;;;5118154;27;20054;-72
2021/09/25 09:56:52;;;;;;;3.55;2.83;;;24.90;96.70;;;;;;5114497;27;20559;-71
2021/09/25 09:59:21;;;;;;;5.25;2.28;;;25.00;96.70;;;;;;5114575;27;20043;-72
2021/09/25 10:01:50;;;;;;;5.63;2.70;;;25.00;96.70;;;;;;5114899;27;20035;-72
2021/09/25 10:04:20;;;;;;;7.50;2.63;;;25.00;96.70;;;;;;5120200;27;20126;-72
2021/09/25 10:06:53;;;;;;;3.72;2.75;;;25.10;96.70;;;;;;5114256;27;20039;-73
2021/09/25 10:09:25;;;;;;;5.10;2.80;;;25.00;96.70;;;;;;5116250;27;20552;-73
2021/09/25 10:11:55;;;;;;;5.55;3.10;;;25.00;96.70;;;;;;5116648;27;20059;-72
2021/09/25 10:14:25;;;;;;;4.18;2.38;;;25.10;96.70;;;;;;5117454;27;20062;-72
2021/09/25 10:16:55;;;;;;;4.78;2.42;;;25.20;96.70;;;;;;5115243;27;20037;-72
2021/09/25 10:19:31;;;;;;;4.97;2.45;;;25.30;96.70;;;;;;5112940;27;20399;-72
2021/09/25 10:22:05;;;;;;;4.15;1.70;;;25.40;96.70;;;;;;5108596;27;20035;-72
2021/09/25 10:24:37;;;;;;;2.67;1.80;;;25.50;96.70;;;;;;5115024;27;20559;-72
2021/09/25 10:27:07;;;;;;;3.00;1.70;;;25.60;96.70;;;;;;5117307;27;20281;-73
2021/09/25 10:29:42;;;;;;;7.25;2.05;;;25.60;96.70;;;;;;5118060;27;20055;-73
2021/09/25 10:32:22;;;;;;;4.35;2.20;;;25.60;96.70;;;;;;5113720;27;21025;-72
2021/09/25 10:35:07;;;;;;;2.65;1.90;;;25.80;96.70;;;;;;5097188;27;20428;-73
2021/09/25 10:37:37;;;;;;;2.88;1.80;;;25.90;96.70;;;;;;5111509;27;20032;-72
2021/09/25 10:40:29;;;;;;;4.43;2.20;;;26.00;96.70;;;;;;5115234;27;20035;-72
2021/09/25 10:43:00;;;;;;;3.40;1.80;;;26.20;96.70;;;;;;5119043;27;20415;-73
2021/09/25 10:45:31;;;;;;;1.80;1.38;;;26.20;96.70;;;;;;5119600;27;20054;-72
2021/09/25 10:48:09;;;;;;;5.30;1.42;;;26.20;96.70;;;;;;5115994;27;20043;-73
2021/09/25 10:50:39;;;;;;;2.95;1.55;;;26.30;96.70;;;;;;5114308;27;20067;-73
2021/09/25 10:53:10;;;;;;;2.88;1.80;;;26.30;96.70;;;;;;5110028;27;20553;-73
2021/09/25 10:55:43;;;;;;;4.00;2.05;;;26.30;96.70;;;;;;5116414;27;20039;-73
2021/09/25 10:58:18;;;;;;;4.80;1.85;;;26.30;96.70;;;;;;5119594;27;20564;-73
2021/09/25 11:01:15;;;;;;;6.40;2.05;;;26.30;96.70;;;;;;5107625;27;20126;-72
2021/09/25 11:04:04;;;;;;;5.75;2.00;;;26.40;96.70;;;;;;5104822;27;20096;-73
2021/09/25 11:06:42;;;;;;;3.85;2.22;;;26.60;96.70;;;;;;5110708;27;20043;-73
2021/09/25 11:09:16;;;;;;;5.50;2.33;;;26.70;96.70;;;;;;5111234;27;20035;-73
2021/09/25 11:11:51;;;;;;;5.03;2.70;;;26.70;96.70;;;;;;5108397;27;20038;-72
2021/09/25 11:14:22;;;;;;;3.08;1.80;;;26.80;96.70;;;;;;5112998;27;20043;-73
2021/09/25 11:17:02;;;;;;;2.92;1.88;;;26.60;96.70;;;;;;5104466;27;20582;-72
2021/09/25 11:19:37;;;;;;;4.85;2.33;;;26.60;96.70;;;;;;5114472;27;20054;-73
2021/09/25 11:22:09;;;;;;;4.32;2.28;;;26.60;96.70;;;;;;5121491;27;20050;-73
2021/09/25 11:24:41;;;;;;;4.45;1.65;;;26.70;96.70;;;;;;5118931;28;20062;-72
2021/09/25 11:27:14;;;;;;;5.97;2.10;;;26.70;96.70;;;;;;5110123;27;20130;-73
2021/09/25 11:30:04;;;;;;;2.88;1.80;;;26.90;96.70;;;;;;5126278;27;20377;-72
2021/09/25 11:32:34;;;;;;;5.15;2.47;;;27.10;96.70;;;;;;5117213;27;20127;-73
2021/09/25 11:35:06;;;;;;;4.72;2.33;;;27.20;96.70;;;;;;5108637;28;20046;-73
2021/09/25 11:37:35;;;;;;;7.57;2.20;;;27.10;96.70;;;;;;5118042;27;20491;-72
2021/09/25 11:40:10;;;;;;;6.07;2.33;;;27.10;96.70;;;;;;5117889;27;20115;-73
2021/09/25 11:42:40;;;;;;;6.85;2.30;;;27.10;96.70;;;;;;5112445;27;20464;-72
2021/09/25 11:45:10;;;;;;;8.75;2.45;;;27.20;96.70;;;;;;5114981;27;20046;-73
2021/09/25 11:47:40;;;;;;;7.00;2.60;;;27.20;96.70;;;;;;5107439;27;20040;-74
2021/09/25 11:50:18;;;;;;;11.00;3.00;;;27.10;96.70;;;;;;5117573;27;20046;-75
2021/09/25 11:52:48;;;;;;;12.10;3.20;;;27.10;96.70;;;;;;5117855;27;20454;-74
2021/09/25 11:55:17;;;;;;;8.82;2.30;;;27.20;96.70;;;;;;5115649;27;20048;-74
2021/09/25 11:57:49;;;;;;;4.57;2.42;;;27.20;96.70;;;;;;5123936;27;20694;-73
2021/09/25 12:00:22;;;;;;;6.78;2.38;;;27.30;96.70;;;;;;5117780;28;20047;-74
2021/09/25 12:02:52;;;;;;;8.63;2.40;;;27.30;96.70;;;;;;5115221;27;20040;-74
2021/09/25 12:05:32;;;;;;;5.10;2.30;;;27.30;96.70;;;;;;5105568;28;20047;-75
2021/09/25 12:08:04;;;;;;;8.45;2.60;;;27.30;96.70;;;;;;5121552;27;20387;-75
2021/09/25 12:10:34;;;;;;;8.98;2.35;;;27.60;96.70;;;;;;5108152;27;20039;-74
2021/09/25 12:13:05;;;;;;;7.18;2.10;;;27.70;96.70;;;;;;5122084;27;20047;-74
2021/09/25 12:15:50;;;;;;;5.40;2.10;;;27.80;96.70;;;;;;5121000;27;20050;-73
2021/09/25 12:18:21;;;;;;;7.95;2.13;;;27.90;96.70;;;;;;5123648;27;20061;-74
2021/09/25 12:20:56;;;;;;;7.60;2.60;;;28.20;96.70;;;;;;5119119;27;20055;-74
2021/09/25 12:23:29;;;;;;;10.25;2.63;;;28.20;96.70;;;;;;5114954;27;20032;-73
2021/09/25 12:25:58;;;;;;;9.15;2.70;;;28.30;96.70;;;;;;5118958;27;20141;-74
2021/09/25 12:28:46;;;;;;;7.07;2.00;;;28.40;96.70;;;;;;5101183;27;20129;-75
2021/09/25 12:31:24;;;;;;;11.85;2.92;;;28.60;96.70;;;;;;5113788;27;20047;-74
2021/09/25 12:33:55;;;;;;;8.05;2.30;;;28.70;96.70;;;;;;5098299;27;20097;-75
2021/09/25 12:36:26;;;;;;;10.05;2.92;;;28.60;96.70;;;;;;5122754;27;20524;-81
2021/09/25 12:39:00;;;;;;;9.10;2.45;;;28.40;96.70;;;;;;5123066;27;20039;-82
2021/09/25 12:41:28;;;;;;;9.02;2.60;;;28.10;96.70;;;;;;5125880;27;20480;-81
2021/09/25 12:44:00;;;;;;;7.85;2.08;;;28.00;96.70;;;;;;5102735;27;20043;-81
2021/09/25 12:46:29;;;;;;;8.68;5.95;;;28.00;96.70;;;;;;5120851;27;20043;-82
2021/09/25 12:49:22;;;;;;;10.07;2.50;;;28.00;96.70;;;;;;5107823;27;20042;-82
2021/09/25 12:51:52;;;;;;;8.68;2.80;;;28.20;96.70;;;;;;5123522;27;20047;-81
2021/09/25 12:54:25;;;;;;;10.75;2.88;;;28.40;96.70;;;;;;5114404;27;20066;-81
2021/09/25 12:56:54;;;;;;;9.25;3.03;;;28.40;96.70;;;;;;5114358;27;20050;-78
2021/09/25 12:59:30;;;;;;;8.23;2.10;;;28.50;96.70;;;;;;5121714;27;20046;-79
2021/09/25 13:02:01;;;;;;;8.98;2.60;;;28.40;96.70;;;;;;5120300;27;20043;-78